Kezdőlap
METAR-TAF:

METAR-TAF

Repülőterek :

Waukegan Regional Airport

Waukegan, Illinois, Amerikai Egyesült Államok

földrajzi szélesség: 42-25N, földrajzi hosszúság: 087-52W, magasság: 222 m

Jelenlegi meteorológiai megfigyelések

A jelentés 22 perccel ezelõtt készült, 10:51 UTC
Nyugati szél 4 kt
Hőmérséklet 19°C
Páratartalom 83%
Légköri nyomás 1019 hPa
Látótávolság: 16.1 km
Derült ég

METAR: KUGN 211051Z 27004KT 10SM CLR 19/16 A3010 RMK AO2 SLP183 T01890156

Idő: 06:13 (11:13 UTC)


TAF: hiányzik

Meteorológiai megfigyelések és előrejelzések több, mint 4000 repülőtéren (METAR és TAF jelentéseket).

A térképen piros és sárga pontok jelzik az elérhető meteorológiai állomásokat.

Mozgassa az egeret a pont fölött, hogy megjelenjen az állomás neve.

Azután kattintson az időjárási megfigyelések és előrejelzések megtekintéséhez.

A térkép megváltoztatása: kattintson a fekete keresztel jelölt zöld gombra ráközelítéshez, a vonallal jelölt zöld gombra távolításhoz, vagy a zöld nyilakra a szomszédos térképek eléréséhez.


METAR-TAF: